Time;durP1;ratioP1;P1;durP2;ratioP2;P2;SDS_P1;SDS_P2;PMS_P1;PMS_P2;Temp;Humidity;BMP_temperature;BMP_pressure;BME280_temperature;BME280_humidity;BME280_pressure;Samples;Min_cycle;Max_cycle;Signal;HPM_P1;HPM_P2
2021/05/02 00:01:10;;;;;;;2.45;0.80;;;8.00;99.90;;;;;;5093570;28;20048;-81
2021/05/02 00:03:37;;;;;;;4.32;1.27;;;8.00;99.90;;;;;;5081734;28;20090;-81
2021/05/02 00:06:05;;;;;;;6.38;1.27;;;7.90;99.90;;;;;;5091745;28;20468;-81
2021/05/02 00:08:33;;;;;;;4.00;1.65;;;7.90;99.90;;;;;;5087949;28;20092;-80
2021/05/02 00:10:59;;;;;;;5.40;2.60;;;7.90;99.90;;;;;;5088804;28;20106;-81
2021/05/02 00:13:26;;;;;;;4.22;1.35;;;7.90;99.90;;;;;;5081965;28;20060;-81
2021/05/02 00:15:52;;;;;;;6.38;1.60;;;7.90;99.90;;;;;;5086021;28;20071;-81
2021/05/02 00:18:24;;;;;;;4.13;1.60;;;7.90;99.90;;;;;;5096049;28;20078;-81
2021/05/02 00:20:52;;;;;;;2.75;0.98;;;7.90;99.90;;;;;;5091154;28;20072;-81
2021/05/02 00:23:19;;;;;;;7.75;1.20;;;7.90;99.90;;;;;;5095034;28;20036;-81
2021/05/02 00:25:47;;;;;;;5.20;1.63;;;7.90;99.90;;;;;;5087133;28;20169;-81
2021/05/02 00:28:14;;;;;;;4.20;1.27;;;7.80;99.90;;;;;;5091092;28;20118;-81
2021/05/02 00:30:42;;;;;;;5.38;1.80;;;7.90;99.90;;;;;;5088472;28;20105;-81
2021/05/02 00:33:11;;;;;;;6.95;1.67;;;7.80;99.90;;;;;;5089736;28;20056;-81
2021/05/02 00:35:38;;;;;;;3.97;1.08;;;7.80;99.90;;;;;;5090486;28;20486;-81
2021/05/02 00:38:05;;;;;;;3.83;1.42;;;7.90;99.90;;;;;;5085118;28;20552;-81
2021/05/02 00:40:40;;;;;;;2.10;1.23;;;7.90;99.90;;;;;;5092533;28;20078;-81
2021/05/02 00:43:09;;;;;;;1.92;1.13;;;7.80;99.90;;;;;;5106870;28;20487;-81
2021/05/02 00:46:02;;;;;;;3.40;1.20;;;7.80;99.90;;;;;;5089178;28;20052;-81
2021/05/02 00:48:52;;;;;;;1.75;1.10;;;7.70;99.90;;;;;;5089192;28;20547;-81
2021/05/02 00:51:21;;;;;;;5.10;1.45;;;7.70;99.90;;;;;;5088063;28;20112;-81
2021/05/02 00:53:53;;;;;;;7.65;2.15;;;7.60;99.90;;;;;;5089029;28;20102;-81
2021/05/02 00:56:28;;;;;;;2.88;1.60;;;7.50;99.90;;;;;;5087590;28;20090;-83
2021/05/02 00:59:01;;;;;;;5.70;1.42;;;7.40;99.90;;;;;;5086279;28;20495;-83
2021/05/02 01:01:39;;;;;;;6.85;1.63;;;7.30;99.90;;;;;;5098883;28;20044;-83
2021/05/02 01:04:09;;;;;;;6.63;1.40;;;7.30;99.90;;;;;;5068258;28;20075;-83
2021/05/02 01:06:41;;;;;;;7.45;1.40;;;7.20;99.90;;;;;;5064820;28;20052;-83
2021/05/02 01:09:09;;;;;;;4.95;1.27;;;7.10;99.90;;;;;;5066853;28;20131;-83
2021/05/02 01:11:37;;;;;;;7.22;1.63;;;7.00;99.90;;;;;;5065554;28;20076;-82
2021/05/02 01:14:05;;;;;;;2.45;1.23;;;6.90;99.90;;;;;;5067808;28;20056;-83
2021/05/02 01:16:35;;;;;;;3.97;1.30;;;6.80;99.90;;;;;;5084655;28;20047;-83
2021/05/02 01:19:07;;;;;;;10.73;1.77;;;6.80;99.90;;;;;;5084084;28;20044;-83
2021/05/02 01:21:37;;;;;;;6.25;1.52;;;6.70;99.90;;;;;;5086130;28;20052;-83
2021/05/02 01:24:07;;;;;;;7.00;1.55;;;6.70;99.90;;;;;;5091259;27;20139;-83
2021/05/02 01:26:38;;;;;;;2.88;1.58;;;6.60;99.90;;;;;;5079289;28;20105;-82
2021/05/02 01:29:05;;;;;;;4.07;1.70;;;6.60;99.90;;;;;;5065371;28;20127;-82
2021/05/02 01:31:32;;;;;;;6.25;1.50;;;6.50;99.90;;;;;;5063911;28;20135;-83
2021/05/02 01:33:59;;;;;;;9.60;2.15;;;6.50;99.90;;;;;;5064962;28;20131;-83
2021/05/02 01:36:26;;;;;;;7.25;2.15;;;6.40;99.90;;;;;;5066404;28;20090;-82
2021/05/02 01:38:55;;;;;;;7.43;1.75;;;6.40;99.90;;;;;;5085175;28;20072;-83
2021/05/02 01:41:22;;;;;;;6.25;1.70;;;6.30;99.90;;;;;;5101135;28;20134;-83
2021/05/02 01:43:48;;;;;;;8.23;2.10;;;6.30;99.90;;;;;;5087175;28;20048;-83
2021/05/02 01:46:19;;;;;;;9.55;2.20;;;6.20;99.90;;;;;;5086169;28;20089;-83
2021/05/02 01:48:46;;;;;;;3.85;1.77;;;6.20;99.90;;;;;;5079517;28;20571;-83
2021/05/02 01:51:13;;;;;;;4.18;1.65;;;6.10;99.90;;;;;;5085738;28;20074;-83
2021/05/02 01:53:40;;;;;;;5.18;2.20;;;6.10;99.90;;;;;;5084124;28;20052;-83
2021/05/02 01:56:06;;;;;;;7.25;2.40;;;6.10;99.90;;;;;;5082722;28;20095;-83
2021/05/02 01:58:35;;;;;;;9.48;2.00;;;6.00;99.90;;;;;;5084157;28;20131;-83
2021/05/02 02:01:06;;;;;;;5.93;1.80;;;6.00;99.90;;;;;;5092180;28;20137;-83
2021/05/02 02:03:33;;;;;;;4.00;1.67;;;5.90;99.90;;;;;;5083803;28;20051;-83
2021/05/02 02:06:01;;;;;;;3.53;1.70;;;5.90;99.90;;;;;;5081085;28;20040;-83
2021/05/02 02:08:27;;;;;;;4.40;1.92;;;5.90;99.90;;;;;;5087569;28;20055;-83
2021/05/02 02:10:54;;;;;;;6.72;2.33;;;5.90;99.90;;;;;;5087905;28;20139;-83
2021/05/02 02:13:21;;;;;;;6.53;1.75;;;5.90;99.90;;;;;;5085687;28;20055;-83
2021/05/02 02:15:48;;;;;;;5.68;1.65;;;5.80;99.90;;;;;;5100250;28;20078;-83
2021/05/02 02:18:16;;;;;;;7.15;2.08;;;5.80;99.90;;;;;;5084333;28;20127;-82
2021/05/02 02:20:54;;;;;;;7.22;1.60;;;5.80;99.90;;;;;;5080312;28;20047;-83
2021/05/02 02:23:24;;;;;;;5.07;1.30;;;5.80;99.90;;;;;;5082177;28;20040;-83
2021/05/02 02:25:52;;;;;;;2.22;1.48;;;5.90;99.90;;;;;;5083710;28;20149;-83
2021/05/02 02:28:20;;;;;;;3.05;1.58;;;5.80;99.90;;;;;;5083816;28;20048;-83
2021/05/02 02:30:57;;;;;;;8.15;1.52;;;5.90;99.90;;;;;;5086246;28;20047;-83
2021/05/02 02:33:28;;;;;;;3.78;1.33;;;5.90;99.90;;;;;;5078137;28;20044;-83
2021/05/02 02:35:55;;;;;;;7.38;1.75;;;6.00;99.90;;;;;;5085049;28;20079;-83
2021/05/02 02:38:24;;;;;;;3.17;1.13;;;5.90;99.90;;;;;;5084253;28;20068;-83
2021/05/02 02:40:55;;;;;;;3.83;1.45;;;6.00;99.90;;;;;;5101492;28;20048;-83
2021/05/02 02:43:32;;;;;;;8.10;2.15;;;6.00;99.90;;;;;;5082471;28;20075;-83
2021/05/02 02:46:04;;;;;;;4.15;1.30;;;6.10;99.90;;;;;;5075798;28;20044;-83
2021/05/02 02:48:34;;;;;;;6.55;1.20;;;6.10;99.90;;;;;;5084595;28;20491;-83
2021/05/02 02:51:03;;;;;;;4.57;1.52;;;6.20;99.90;;;;;;5084369;28;20126;-83
2021/05/02 02:53:31;;;;;;;7.68;1.90;;;6.20;99.90;;;;;;5084829;28;20052;-82
2021/05/02 02:56:22;;;;;;;7.70;1.58;;;6.20;99.90;;;;;;5085182;28;20052;-83
2021/05/02 02:58:51;;;;;;;6.75;1.95;;;6.30;99.90;;;;;;5081457;28;20105;-83
2021/05/02 03:01:18;;;;;;;12.23;2.10;;;6.30;99.90;;;;;;5084131;28;20048;-83
2021/05/02 03:03:45;;;;;;;9.45;3.22;;;6.30;99.90;;;;;;5101032;28;20052;-83
2021/05/02 03:06:12;;;;;;;3.83;1.20;;;6.20;99.90;;;;;;5086934;28;20078;-83
2021/05/02 03:08:40;;;;;;;7.15;2.15;;;6.20;99.90;;;;;;5087241;28;20473;-83
2021/05/02 03:11:08;;;;;;;8.57;2.03;;;6.20;99.90;;;;;;5083413;28;20056;-83
2021/05/02 03:13:35;;;;;;;4.45;1.40;;;6.20;99.90;;;;;;5086796;28;20082;-83
2021/05/02 03:16:03;;;;;;;6.07;1.55;;;6.20;99.90;;;;;;5088226;28;20131;-83
2021/05/02 03:18:55;;;;;;;4.20;2.03;;;6.20;99.90;;;;;;5086922;28;20029;-83
2021/05/02 03:21:32;;;;;;;6.72;1.45;;;6.20;99.90;;;;;;5072705;28;20114;-83
2021/05/02 03:24:03;;;;;;;4.97;1.92;;;6.10;99.90;;;;;;5087533;28;20055;-83
2021/05/02 03:26:30;;;;;;;5.72;2.05;;;6.10;99.90;;;;;;5088278;28;20059;-83
2021/05/02 03:29:01;;;;;;;5.03;1.67;;;6.10;99.90;;;;;;5090564;28;20077;-83
2021/05/02 03:31:30;;;;;;;4.90;1.88;;;6.10;99.90;;;;;;5105036;27;20253;-83
2021/05/02 03:34:05;;;;;;;3.78;1.83;;;6.10;99.90;;;;;;5086458;28;20032;-83
2021/05/02 03:36:50;;;;;;;4.80;1.90;;;6.00;99.90;;;;;;5088198;28;20063;-83
2021/05/02 03:39:17;;;;;;;7.13;3.72;;;6.00;99.90;;;;;;5086788;28;20086;-83
2021/05/02 03:41:43;;;;;;;9.35;2.38;;;6.00;99.90;;;;;;5088975;28;20055;-83
2021/05/02 03:44:09;;;;;;;7.05;2.28;;;6.00;99.90;;;;;;5064954;28;20151;-83
2021/05/02 03:46:36;;;;;;;4.50;1.58;;;6.00;99.90;;;;;;5082098;28;20552;-83
2021/05/02 03:49:05;;;;;;;7.60;2.58;;;6.10;99.90;;;;;;5086402;28;20075;-83
2021/05/02 03:51:34;;;;;;;7.40;2.28;;;6.10;99.90;;;;;;5087823;28;20846;-83
2021/05/02 03:54:01;;;;;;;9.90;2.13;;;6.10;99.90;;;;;;5103920;27;20072;-83
2021/05/02 03:56:44;;;;;;;7.55;2.13;;;6.20;99.90;;;;;;5089414;27;20063;-83
2021/05/02 03:59:18;;;;;;;6.47;1.85;;;6.20;99.90;;;;;;5102708;28;20059;-83
2021/05/02 04:01:52;;;;;;;3.55;1.67;;;6.30;99.90;;;;;;5085953;28;20055;-83
2021/05/02 04:04:22;;;;;;;2.65;1.70;;;6.30;99.90;;;;;;5085486;28;20483;-83
2021/05/02 04:06:49;;;;;;;4.03;1.75;;;6.30;99.90;;;;;;5087347;28;20054;-83
2021/05/02 04:09:17;;;;;;;7.53;2.10;;;6.40;99.90;;;;;;5087778;28;20054;-83
2021/05/02 04:11:44;;;;;;;7.15;1.75;;;6.40;99.90;;;;;;5081931;28;20487;-83
2021/05/02 04:14:13;;;;;;;5.43;1.80;;;6.40;99.90;;;;;;5081659;28;20048;-83
2021/05/02 04:16:39;;;;;;;6.05;1.75;;;6.40;99.90;;;;;;5089294;28;20115;-83
2021/05/02 04:19:09;;;;;;;3.92;1.90;;;6.40;99.90;;;;;;5097388;28;20071;-83
2021/05/02 04:21:37;;;;;;;5.85;2.53;;;6.40;99.90;;;;;;5085041;28;20079;-83
2021/05/02 04:24:04;;;;;;;6.05;2.00;;;6.30;99.90;;;;;;5091171;28;20078;-83
2021/05/02 04:26:31;;;;;;;8.88;2.28;;;6.30;99.90;;;;;;5083226;28;20052;-83
2021/05/02 04:28:57;;;;;;;4.82;1.60;;;6.30;99.90;;;;;;5090578;28;20052;-83
2021/05/02 04:31:23;;;;;;;4.93;2.00;;;6.40;99.90;;;;;;5082192;27;20048;-83
2021/05/02 04:33:50;;;;;;;2.97;1.50;;;6.50;99.90;;;;;;5087891;28;20360;-83
2021/05/02 04:36:16;;;;;;;2.08;1.70;;;6.50;99.90;;;;;;5088345;28;20056;-83
2021/05/02 04:38:42;;;;;;;4.30;1.40;;;6.60;99.90;;;;;;5090169;28;20052;-83
2021/05/02 04:41:09;;;;;;;6.50;1.88;;;6.60;99.90;;;;;;5086754;27;20130;-83
2021/05/02 04:43:35;;;;;;;4.95;1.63;;;6.80;99.90;;;;;;5081654;28;20048;-83
2021/05/02 04:46:02;;;;;;;11.32;1.60;;;6.80;99.90;;;;;;5089635;27;20151;-83
2021/05/02 04:48:28;;;;;;;2.85;1.45;;;6.90;99.90;;;;;;5087437;28;20422;-83
2021/05/02 04:50:55;;;;;;;3.72;1.60;;;7.00;99.90;;;;;;5086524;28;20097;-83
2021/05/02 04:53:21;;;;;;;4.15;2.03;;;7.10;99.90;;;;;;5086422;28;20103;-83
2021/05/02 04:55:47;;;;;;;2.95;1.67;;;7.30;99.90;;;;;;5090021;28;20050;-83
2021/05/02 04:58:14;;;;;;;4.05;1.52;;;7.40;99.90;;;;;;5085643;28;20040;-83
2021/05/02 05:00:40;;;;;;;9.27;2.47;;;7.50;99.90;;;;;;5086666;28;20035;-83
2021/05/02 05:03:07;;;;;;;5.05;2.72;;;7.60;99.90;;;;;;5088434;28;20138;-83
2021/05/02 05:05:33;;;;;;;5.90;2.08;;;7.70;99.90;;;;;;5087745;28;20062;-83
2021/05/02 05:07:59;;;;;;;8.75;2.30;;;7.80;99.90;;;;;;5084656;28;20044;-83
2021/05/02 05:10:26;;;;;;;4.00;2.03;;;7.80;99.90;;;;;;5085964;28;20043;-84
2021/05/02 05:12:52;;;;;;;2.65;2.30;;;7.80;99.90;;;;;;5086839;28;20048;-83
2021/05/02 05:15:18;;;;;;;8.65;2.25;;;7.70;99.90;;;;;;5093638;28;20076;-83
2021/05/02 05:17:45;;;;;;;8.40;2.45;;;7.70;99.90;;;;;;5087958;28;20126;-83
2021/05/02 05:20:12;;;;;;;7.25;2.40;;;7.60;99.90;;;;;;5085674;28;20109;-83
2021/05/02 05:22:38;;;;;;;8.43;2.47;;;7.50;99.90;;;;;;5087208;28;20052;-83
2021/05/02 05:25:05;;;;;;;5.68;2.58;;;7.40;99.90;;;;;;5078859;28;20079;-83
2021/05/02 05:27:31;;;;;;;4.47;3.05;;;7.30;99.90;;;;;;5087864;28;20102;-84
2021/05/02 05:29:57;;;;;;;6.70;2.10;;;7.20;99.90;;;;;;5084192;28;20089;-83
2021/05/02 05:32:24;;;;;;;7.75;2.30;;;7.10;99.90;;;;;;5077811;28;20040;-84
2021/05/02 05:34:50;;;;;;;8.40;2.33;;;7.10;99.90;;;;;;5076708;28;20078;-83
2021/05/02 05:37:17;;;;;;;7.45;1.75;;;7.00;99.90;;;;;;5088271;28;20071;-84
2021/05/02 05:39:43;;;;;;;6.22;2.28;;;7.00;99.90;;;;;;5087335;27;20090;-83
2021/05/02 05:42:09;;;;;;;6.03;2.03;;;7.10;99.90;;;;;;5086816;28;20125;-84
2021/05/02 05:44:35;;;;;;;5.70;2.17;;;7.30;99.90;;;;;;5086041;28;20051;-83
2021/05/02 05:47:03;;;;;;;5.60;1.90;;;7.60;99.90;;;;;;5087496;28;21322;-83
2021/05/02 05:49:30;;;;;;;4.90;2.22;;;8.00;99.90;;;;;;5086139;28;20429;-83
2021/05/02 05:51:56;;;;;;;3.38;1.77;;;8.40;99.90;;;;;;5087809;28;20048;-84
2021/05/02 05:54:23;;;;;;;9.05;2.00;;;8.70;99.90;;;;;;5086275;28;20067;-84
2021/05/02 05:56:49;;;;;;;4.97;2.00;;;8.80;99.90;;;;;;5087383;27;20467;-84
2021/05/02 05:59:16;;;;;;;9.13;1.23;;;8.70;99.90;;;;;;5086584;28;20277;-83
2021/05/02 06:01:42;;;;;;;4.13;1.58;;;8.60;99.90;;;;;;5089073;28;20083;-83
2021/05/02 06:04:09;;;;;;;4.18;1.60;;;8.60;99.90;;;;;;5066584;28;20052;-83
2021/05/02 06:06:36;;;;;;;3.17;1.48;;;8.60;99.90;;;;;;5082697;28;20557;-83
2021/05/02 06:09:05;;;;;;;5.40;1.58;;;8.70;99.90;;;;;;5086668;28;20059;-84
2021/05/02 06:11:32;;;;;;;1.50;1.20;;;8.80;99.90;;;;;;5084472;28;20044;-83
2021/05/02 06:13:59;;;;;;;4.00;1.40;;;8.80;99.90;;;;;;5080069;28;20056;-83
2021/05/02 06:16:25;;;;;;;1.90;1.35;;;8.90;99.90;;;;;;5085891;28;20363;-83
2021/05/02 06:18:56;;;;;;;4.30;1.33;;;8.80;99.90;;;;;;5083917;28;20080;-83
2021/05/02 06:21:26;;;;;;;3.03;1.05;;;8.80;99.90;;;;;;5059498;28;20052;-84
2021/05/02 06:23:54;;;;;;;2.97;1.30;;;8.70;99.90;;;;;;5059202;28;20098;-83
2021/05/02 06:26:21;;;;;;;3.50;1.65;;;8.80;99.90;;;;;;5050582;28;20081;-83
2021/05/02 06:28:49;;;;;;;5.43;1.13;;;8.90;99.90;;;;;;5075668;28;20138;-83
2021/05/02 06:31:16;;;;;;;5.18;1.38;;;9.10;99.90;;;;;;5084689;28;20101;-84
2021/05/02 06:33:43;;;;;;;1.83;1.10;;;9.20;99.90;;;;;;5103888;28;20465;-83
2021/05/02 06:36:09;;;;;;;5.40;1.60;;;9.30;99.90;;;;;;5089833;28;20048;-83
2021/05/02 06:38:36;;;;;;;2.55;1.20;;;9.50;99.90;;;;;;5095387;28;20052;-83
2021/05/02 06:41:03;;;;;;;3.17;0.93;;;9.50;99.90;;;;;;5086153;28;20040;-83
2021/05/02 06:43:31;;;;;;;2.88;1.35;;;9.50;99.90;;;;;;5088699;28;20044;-83
2021/05/02 06:45:58;;;;;;;7.90;1.92;;;9.50;99.90;;;;;;5087445;28;20048;-83
2021/05/02 06:48:25;;;;;;;6.43;1.45;;;9.50;99.90;;;;;;5098939;27;20112;-83
2021/05/02 06:50:52;;;;;;;2.70;1.30;;;9.30;99.90;;;;;;5088520;28;20447;-83
2021/05/02 06:53:18;;;;;;;3.85;1.35;;;9.20;99.90;;;;;;5088682;28;20127;-83
2021/05/02 06:55:45;;;;;;;6.28;1.50;;;9.00;99.90;;;;;;5088759;28;20047;-83
2021/05/02 06:58:13;;;;;;;2.63;1.02;;;9.00;99.90;;;;;;5102957;28;20048;-83
2021/05/02 07:00:39;;;;;;;1.60;0.90;;;8.90;99.90;;;;;;5090435;28;20433;-83
2021/05/02 07:03:06;;;;;;;3.33;1.00;;;9.10;99.90;;;;;;5089493;28;20495;-83
2021/05/02 07:05:34;;;;;;;2.35;1.10;;;9.30;99.90;;;;;;5088726;28;20143;-84
2021/05/02 07:08:00;;;;;;;3.72;1.48;;;9.40;99.90;;;;;;5089462;28;20449;-83
2021/05/02 07:10:28;;;;;;;15.63;1.90;;;9.40;99.90;;;;;;5089575;28;20058;-84
2021/05/02 07:12:54;;;;;;;2.35;1.23;;;9.40;99.90;;;;;;5090226;28;20079;-84
2021/05/02 07:15:20;;;;;;;6.60;1.33;;;9.50;99.90;;;;;;5088141;28;20138;-84
2021/05/02 07:17:48;;;;;;;5.32;1.10;;;9.60;99.90;;;;;;5095200;28;20071;-84
2021/05/02 07:20:16;;;;;;;3.50;1.13;;;9.70;99.90;;;;;;5081481;28;20059;-84
2021/05/02 07:22:51;;;;;;;1.92;0.93;;;9.70;99.90;;;;;;5070887;28;20053;-84
2021/05/02 07:25:18;;;;;;;1.77;0.93;;;9.70;99.90;;;;;;5085337;28;20180;-84
2021/05/02 07:27:45;;;;;;;2.92;1.10;;;9.70;99.90;;;;;;5069384;28;20108;-83
2021/05/02 07:30:12;;;;;;;2.20;0.95;;;9.70;99.90;;;;;;5069128;28;20135;-84
2021/05/02 07:32:38;;;;;;;2.85;1.10;;;9.60;99.90;;;;;;5068366;28;20126;-83
2021/05/02 07:35:04;;;;;;;5.90;1.25;;;9.50;99.90;;;;;;5050994;28;20054;-84
2021/05/02 07:37:31;;;;;;;2.70;1.10;;;9.40;99.90;;;;;;5060977;28;20428;-84
2021/05/02 07:39:58;;;;;;;1.05;0.82;;;9.30;99.90;;;;;;5081097;28;20048;-82
2021/05/02 07:42:25;;;;;;;4.00;1.25;;;9.30;99.90;;;;;;5086825;28;20071;-82
2021/05/02 07:44:53;;;;;;;1.35;0.80;;;9.40;99.90;;;;;;5086977;28;20154;-83
2021/05/02 07:47:19;;;;;;;6.45;1.10;;;9.80;99.90;;;;;;5085978;28;20048;-84
2021/05/02 07:49:48;;;;;;;2.25;0.75;;;10.00;99.90;;;;;;5087714;28;20044;-84
2021/05/02 07:52:15;;;;;;;2.47;1.00;;;10.40;99.90;;;;;;5087750;28;20048;-84
2021/05/02 07:54:42;;;;;;;1.88;1.20;;;10.70;99.90;;;;;;5090555;28;22687;-84
2021/05/02 07:57:08;;;;;;;1.85;0.70;;;10.90;99.90;;;;;;5084466;28;20044;-84
2021/05/02 07:59:38;;;;;;;2.50;0.95;;;11.00;99.90;;;;;;5085412;28;20058;-83
2021/05/02 08:02:06;;;;;;;2.58;0.80;;;10.80;99.90;;;;;;5086015;28;20054;-83
2021/05/02 08:04:39;;;;;;;1.92;1.02;;;10.80;99.90;;;;;;5082361;28;20053;-83
2021/05/02 08:07:07;;;;;;;2.13;0.77;;;10.90;99.90;;;;;;5084365;28;20133;-83
2021/05/02 08:09:34;;;;;;;3.72;1.10;;;10.90;99.90;;;;;;5086286;28;20051;-83
2021/05/02 08:12:04;;;;;;;4.82;1.05;;;10.90;99.90;;;;;;5086768;28;20416;-83
2021/05/02 08:14:31;;;;;;;3.45;0.93;;;10.70;99.90;;;;;;5085957;28;20059;-83
2021/05/02 08:16:57;;;;;;;2.60;0.73;;;10.50;99.90;;;;;;5086998;28;20612;-83
2021/05/02 08:19:24;;;;;;;3.28;1.00;;;10.40;99.90;;;;;;5059880;28;20052;-85
2021/05/02 08:21:52;;;;;;;1.80;0.80;;;10.40;99.90;;;;;;5075575;28;20031;-82
2021/05/02 08:24:18;;;;;;;8.63;2.17;;;10.70;99.90;;;;;;5062453;27;20752;-82
2021/05/02 08:26:45;;;;;;;4.57;0.90;;;11.10;99.90;;;;;;5079821;28;20070;-84
2021/05/02 08:29:11;;;;;;;7.05;1.20;;;11.20;99.90;;;;;;5085336;28;20210;-83
2021/05/02 08:31:40;;;;;;;3.10;1.10;;;11.10;99.90;;;;;;5084226;28;20071;-82
2021/05/02 08:34:07;;;;;;;1.73;0.90;;;11.20;99.90;;;;;;5063361;28;20063;-83
2021/05/02 08:36:33;;;;;;;4.35;1.08;;;11.50;99.90;;;;;;5075675;28;20895;-82
2021/05/02 08:38:59;;;;;;;5.07;0.85;;;11.60;98.10;;;;;;5087332;28;20075;-83
2021/05/02 08:41:26;;;;;;;2.88;0.93;;;11.70;99.10;;;;;;5076828;28;20074;-83
2021/05/02 08:44:00;;;;;;;2.72;1.00;;;11.90;98.50;;;;;;5085977;28;20507;-83
2021/05/02 08:46:26;;;;;;;4.10;0.90;;;12.20;98.70;;;;;;5079684;28;20469;-83
2021/05/02 08:48:56;;;;;;;1.52;0.80;;;12.50;98.50;;;;;;5086903;28;20058;-84
2021/05/02 08:51:23;;;;;;;3.65;1.10;;;12.50;97.90;;;;;;5077245;28;20055;-83
2021/05/02 08:53:49;;;;;;;3.03;0.95;;;12.40;96.20;;;;;;5084214;28;20073;-83
2021/05/02 08:56:16;;;;;;;5.55;0.85;;;12.30;97.60;;;;;;5086768;28;20071;-83
2021/05/02 08:58:42;;;;;;;2.47;1.00;;;12.30;96.10;;;;;;5089542;28;20048;-84
2021/05/02 09:01:09;;;;;;;2.30;0.82;;;12.20;96.70;;;;;;5087509;28;20109;-84
2021/05/02 09:03:46;;;;;;;2.05;0.93;;;12.30;96.90;;;;;;5084478;28;20062;-83
2021/05/02 09:06:19;;;;;;;4.47;1.00;;;12.40;96.50;;;;;;5085616;28;20047;-83
2021/05/02 09:08:52;;;;;;;2.03;0.88;;;12.60;96.80;;;;;;5082173;28;20077;-83
2021/05/02 09:11:37;;;;;;;1.92;0.80;;;12.80;94.80;;;;;;5106912;27;20043;-85
2021/05/02 09:14:10;;;;;;;3.90;1.15;;;12.80;94.00;;;;;;5089800;28;20044;-83
2021/05/02 09:16:48;;;;;;;1.95;0.98;;;12.70;92.30;;;;;;5088463;28;20071;-85
2021/05/02 09:19:15;;;;;;;2.67;0.93;;;12.80;92.70;;;;;;5091094;28;20104;-84
2021/05/02 09:21:42;;;;;;;0.90;0.65;;;13.10;93.80;;;;;;5088495;28;20382;-85
2021/05/02 09:24:26;;;;;;;3.65;0.75;;;13.40;92.90;;;;;;5087960;28;20478;-85
2021/05/02 09:27:11;;;;;;;3.17;1.00;;;13.40;91.40;;;;;;5087305;28;20073;-85
2021/05/02 09:29:42;;;;;;;1.52;0.93;;;13.20;91.40;;;;;;5085668;28;20066;-82
2021/05/02 09:32:10;;;;;;;1.83;0.93;;;12.90;90.70;;;;;;5082943;28;20079;-83
2021/05/02 09:34:36;;;;;;;4.22;1.23;;;12.70;91.40;;;;;;5082409;28;20047;-82
2021/05/02 09:37:08;;;;;;;2.55;1.00;;;12.70;92.50;;;;;;5084884;28;20572;-82
2021/05/02 09:39:48;;;;;;;1.92;0.93;;;12.70;91.90;;;;;;5080265;28;20500;-82
2021/05/02 09:42:22;;;;;;;3.08;0.98;;;13.00;91.20;;;;;;5083486;28;20048;-83
2021/05/02 09:44:54;;;;;;;3.45;1.02;;;13.00;91.80;;;;;;5100740;28;20052;-82
2021/05/02 09:47:20;;;;;;;2.92;1.08;;;12.80;92.10;;;;;;5078793;28;20051;-84
2021/05/02 09:50:14;;;;;;;7.05;1.00;;;12.80;92.40;;;;;;5090817;28;20052;-84
2021/05/02 09:52:47;;;;;;;3.47;1.02;;;12.90;91.70;;;;;;5101508;28;20162;-85
2021/05/02 09:55:25;;;;;;;1.40;1.05;;;13.10;91.00;;;;;;5087520;28;20055;-83
2021/05/02 09:57:58;;;;;;;3.10;0.73;;;13.40;92.50;;;;;;5084817;28;20048;-83
2021/05/02 10:00:33;;;;;;;2.35;1.23;;;13.60;87.40;;;;;;5092339;28;20103;-83
2021/05/02 10:03:01;;;;;;;5.13;1.08;;;13.60;85.80;;;;;;5084781;28;20084;-84
2021/05/02 10:05:30;;;;;;;1.80;0.73;;;13.60;88.20;;;;;;5085752;28;20048;-84
2021/05/02 10:07:57;;;;;;;2.47;0.80;;;13.90;89.20;;;;;;5085011;28;20056;-82
2021/05/02 10:10:23;;;;;;;2.35;0.80;;;14.20;87.30;;;;;;5075234;28;20147;-83
2021/05/02 10:12:54;;;;;;;1.88;0.98;;;14.30;87.00;;;;;;5076599;28;20072;-83
2021/05/02 10:15:22;;;;;;;2.05;0.70;;;14.50;80.00;;;;;;5065926;28;20084;-82
2021/05/02 10:17:52;;;;;;;4.25;0.80;;;14.50;80.10;;;;;;5081856;28;20059;-85
2021/05/02 10:20:20;;;;;;;4.57;0.90;;;14.80;77.80;;;;;;5097907;28;20740;-83
2021/05/02 10:22:50;;;;;;;1.45;0.80;;;15.20;78.20;;;;;;5083925;28;20530;-83
2021/05/02 10:25:17;;;;;;;2.72;0.77;;;15.30;69.80;;;;;;5083227;28;20044;-85
2021/05/02 10:27:46;;;;;;;2.85;1.33;;;15.00;71.10;;;;;;5076323;28;20131;-85
2021/05/02 10:30:23;;;;;;;1.85;0.88;;;14.80;73.00;;;;;;5082246;28;20052;-84
2021/05/02 10:32:52;;;;;;;1.80;0.75;;;14.60;74.10;;;;;;5082074;28;20168;-84
2021/05/02 10:35:21;;;;;;;2.38;0.77;;;14.40;75.30;;;;;;5078609;28;21653;-85
2021/05/02 10:37:55;;;;;;;0.85;0.70;;;14.30;73.10;;;;;;5082314;28;20074;-85
2021/05/02 10:40:21;;;;;;;1.27;0.88;;;14.30;75.60;;;;;;5095853;28;20044;-84
2021/05/02 10:42:53;;;;;;;1.02;0.80;;;14.40;77.40;;;;;;5083060;28;20104;-85
2021/05/02 10:45:28;;;;;;;1.23;0.90;;;14.80;77.60;;;;;;5081761;28;20054;-83
2021/05/02 10:47:55;;;;;;;4.70;1.13;;;15.00;74.30;;;;;;5083383;28;20186;-83
2021/05/02 10:50:35;;;;;;;2.67;1.17;;;14.90;73.90;;;;;;5083951;28;20102;-84
2021/05/02 10:53:09;;;;;;;2.78;1.08;;;14.70;73.20;;;;;;5085722;28;20067;-85
2021/05/02 10:55:55;;;;;;;2.90;0.70;;;14.40;72.90;;;;;;5100949;28;20044;-85
2021/05/02 10:58:26;;;;;;;2.70;0.90;;;14.20;74.90;;;;;;5089516;28;20075;-83
2021/05/02 11:01:02;;;;;;;6.68;1.15;;;14.00;77.80;;;;;;5082123;28;20048;-85
2021/05/02 11:03:41;;;;;;;1.95;1.02;;;14.10;76.70;;;;;;5104701;27;20044;-85
2021/05/02 11:06:12;;;;;;;3.05;1.15;;;14.20;76.00;;;;;;5083485;28;20076;-85
2021/05/02 11:08:44;;;;;;;2.70;0.80;;;14.50;76.30;;;;;;5069806;28;20059;-85
2021/05/02 11:11:32;;;;;;;1.90;0.60;;;14.80;73.90;;;;;;5084931;28;20071;-84
2021/05/02 11:14:07;;;;;;;2.45;0.77;;;15.00;72.80;;;;;;5057297;28;20443;-84
2021/05/02 11:16:39;;;;;;;2.70;0.75;;;15.00;71.20;;;;;;5075151;28;20064;-85
2021/05/02 11:19:11;;;;;;;4.22;1.17;;;15.00;70.20;;;;;;5079889;28;20522;-86
2021/05/02 11:22:06;;;;;;;1.40;0.52;;;14.80;70.50;;;;;;5072770;28;20056;-85
2021/05/02 11:24:38;;;;;;;3.03;0.80;;;14.70;70.20;;;;;;5064862;28;20051;-85
2021/05/02 11:27:18;;;;;;;1.33;0.60;;;14.60;73.10;;;;;;5081024;28;20048;-85
2021/05/02 11:29:54;;;;;;;1.92;0.70;;;14.50;71.50;;;;;;5086732;28;20185;-84
2021/05/02 11:32:26;;;;;;;0.68;0.68;;;14.30;72.70;;;;;;5073024;28;20044;-84
2021/05/02 11:34:54;;;;;;;5.15;1.13;;;14.20;72.40;;;;;;5087115;28;20126;-84
2021/05/02 11:37:52;;;;;;;3.42;1.35;;;13.90;74.60;;;;;;5087498;28;20066;-84
2021/05/02 11:40:18;;;;;;;4.28;1.23;;;13.80;74.70;;;;;;5059329;28;20099;-84
2021/05/02 11:42:57;;;;;;;4.32;0.80;;;13.60;74.90;;;;;;5045982;28;20127;-84
2021/05/02 11:45:47;;;;;;;1.65;0.63;;;13.60;77.00;;;;;;5068178;28;20494;-84
2021/05/02 11:48:33;;;;;;;1.30;0.80;;;13.60;76.50;;;;;;5066203;28;20403;-83
2021/05/02 11:51:05;;;;;;;2.22;1.02;;;13.50;75.90;;;;;;5064905;28;20114;-84
2021/05/02 11:53:37;;;;;;;3.30;1.00;;;13.40;75.80;;;;;;5057333;28;20112;-84
2021/05/02 11:56:18;;;;;;;3.70;1.20;;;13.30;75.80;;;;;;5065468;28;20499;-85
2021/05/02 11:58:47;;;;;;;2.45;0.93;;;13.20;76.80;;;;;;5092804;28;20404;-86
2021/05/02 12:01:16;;;;;;;2.00;1.30;;;13.20;78.20;;;;;;5068859;28;20052;-85
2021/05/02 12:03:45;;;;;;;2.42;1.00;;;13.30;78.40;;;;;;5072375;28;20056;-85
2021/05/02 12:06:39;;;;;;;1.92;0.93;;;13.60;77.80;;;;;;5066910;28;20053;-86
2021/05/02 12:09:17;;;;;;;5.18;1.23;;;13.90;74.90;;;;;;5077685;28;20565;-86
2021/05/02 12:11:45;;;;;;;2.40;1.05;;;14.20;71.30;;;;;;5077950;28;20048;-84
2021/05/02 12:14:18;;;;;;;3.13;1.25;;;14.50;67.40;;;;;;5092962;28;20044;-85
2021/05/02 12:16:49;;;;;;;0.93;0.90;;;15.00;71.10;;;;;;5081481;28;20071;-85
2021/05/02 12:19:16;;;;;;;2.45;1.00;;;15.60;68.20;;;;;;5085831;28;20044;-85
2021/05/02 12:21:47;;;;;;;4.53;1.23;;;15.60;67.00;;;;;;5086306;28;20051;-85
2021/05/02 12:24:31;;;;;;;3.22;1.45;;;15.20;69.40;;;;;;5077731;28;20507;-86
2021/05/02 12:27:00;;;;;;;3.83;1.52;;;14.70;72.90;;;;;;5066528;28;20483;-84
2021/05/02 12:29:26;;;;;;;2.67;1.70;;;14.20;79.10;;;;;;5066670;28;20127;-84
2021/05/02 12:31:59;;;;;;;2.88;1.70;;;13.90;84.00;;;;;;5067337;28;20110;-85
2021/05/02 12:34:28;;;;;;;2.13;1.45;;;13.90;89.70;;;;;;5068895;28;20075;-85
2021/05/02 12:36:56;;;;;;;2.50;1.58;;;14.30;90.40;;;;;;5064139;28;20053;-85
2021/05/02 12:39:31;;;;;;;3.60;1.38;;;14.60;88.20;;;;;;5059594;28;20053;-85
2021/05/02 12:41:57;;;;;;;2.92;1.20;;;15.30;90.50;;;;;;5087823;28;20520;-85
2021/05/02 12:44:26;;;;;;;3.20;1.23;;;16.00;82.40;;;;;;5077303;28;20067;-86
2021/05/02 12:46:54;;;;;;;2.85;1.20;;;16.40;77.60;;;;;;5075209;28;20079;-85
2021/05/02 12:49:24;;;;;;;1.73;1.27;;;16.80;75.70;;;;;;5100998;28;20060;-85
2021/05/02 12:52:03;;;;;;;2.40;0.70;;;17.10;70.20;;;;;;5087910;28;20054;-85
2021/05/02 12:54:32;;;;;;;1.73;0.90;;;17.40;63.70;;;;;;5079829;28;20113;-86
2021/05/02 12:57:09;;;;;;;1.45;1.08;;;17.60;64.40;;;;;;5076303;28;20062;-85
2021/05/02 13:02:16;;;;;;;1.00;1.00;;;17.70;62.20;;;;;;5090230;28;20044;-85
2021/05/02 13:05:02;;;;;;;3.63;1.52;;;17.70;64.20;;;;;;5094505;28;20155;-83
2021/05/02 13:07:36;;;;;;;4.43;1.35;;;17.70;65.30;;;;;;5086080;28;20063;-85
2021/05/02 13:10:10;;;;;;;3.53;0.85;;;17.50;62.30;;;;;;5101716;28;20062;-85